Tiempo atmosférico en la estación meteorológica de Fonfría, Teruel (1262 m.)



Fecha
DESCASC
Temp. máxima en grados centígrados (hora)
DESCASC
Temp. mínima en grados centígrados (hora)
DESCASC
Temp. media en grados centígrados
DESCASC
Racha de viento máxima en m/sg (hora)
DESCASC
Velocidad máxima media en intervalos de 10 minutos(hora)
DESCASC
Precipitaciones diarias en mm
DESCASC
Precipitaciones de 00:00 a 06:00 en mm
DESCASC
Precipitaciones de 06:00 a 12:00 en mm
DESCASC
Precipitaciones de 12:00 a 18:00 en mm
DESCASC
Precipitaciones de 18:00 a 24:00 en mm
DESCASC
23-06-2019 30.1 (18:30) 15.1 (06:20) 22.6 12.78 (14:10) 7.5 (10:50) 0 0 0 0 0
22-06-2019 27.6 (16:30) 8.6 (04:40) 18.1 8.89 (18:10) 6.11 (18:10) 0 0 0 0 0
21-06-2019 18.8 (16:50) 10.6 (06:00) 14.7 8.89 (16:50) 5.83 (17:20) 0 0 0 0 0
20-06-2019 22.1 (15:40) 12.6 (00:00) 17.4 9.44 (17:50) 6.39 (15:30) 0 0 0 0 0
19-06-2019 -- (--) -- (--) -- -- (--) -- (--) -- -- -- -- 0
18-06-2019 -- (--) -- (--) -- -- (--) -- (--) -- 0 0 0 --
17-06-2019 28.5 (16:40) 11.7 (00:00) 20.1 8.61 (19:50) 6.67 (02:30) 0 0 0 0 0
16-06-2019 24.7 (14:30) 7.6 (00:00) 16.2 8.89 (18:40) 6.94 (23:59) 0 0 0 0 0
15-06-2019 21.1 (19:00) 7.7 (00:00) 14.4 8.61 (17:30) 5 (08:30) 0 0 0 0 0
14-06-2019 24 (17:00) 10.6 (00:00) 17.3 10.83 (18:50) 6.39 (01:20) 0 0 0 0 0
13-06-2019 22.9 (16:10) 8.7 (00:00) 15.8 11.94 (05:30) 8.06 (05:30) 0 0 0 0 0
12-06-2019 19.3 (16:40) 1.2 (00:00) 10.2 10 (19:00) 6.11 (19:40) 0 0 0 0 0
11-06-2019 10.6 (18:30) 4.4 (00:00) 7.5 9.72 (16:20) 6.39 (16:20) 0.4 0 0 0.4 0
10-06-2019 18.5 (15:10) 6.1 (00:00) 12.3 8.06 (17:10) 5.28 (11:00) 0 0 0 0 0
09-06-2019 24 (16:10) 10.6 (00:00) 17.3 10.56 (04:50) 7.78 (05:10) 0 0 0 0 0
08-06-2019 22.2 (17:20) 6.5 (00:00) 14.4 11.11 (19:00) 7.78 (22:30) 0 0 0 0 0
07-06-2019 16.3 (15:30) 5 (00:00) 10.6 13.33 (00:30) 7.22 (08:10) 0 0 0 0 0
06-06-2019 20.8 (17:10) 4.5 (00:00) 12.6 14.72 (18:10) 7.78 (18:10) 0 0 0 0 0
05-06-2019 17.2 (00:00) 5.8 (00:00) 11.5 18.89 (12:30) 9.44 (16:10) 2.8 0 1.8 1 0
04-06-2019 27.3 (16:30) 13.1 (00:00) 20.2 12.78 (14:40) 7.78 (06:00) 0 0 0 0 0
03-06-2019 28.1 (13:30) 14.7 (00:00) 21.4 18.33 (14:20) 9.17 (00:40) 0 0 0 0 0
02-06-2019 27.4 (15:00) 12.7 (00:00) 20 10.28 (23:50) 7.78 (23:59) 0 0 0 0 0
01-06-2019 26.1 (15:30) 10.9 (00:00) 18.5 8.61 (23:40) 6.94 (23:59) 0 0 0 0 0
31-05-2019 23.7 (14:30) 9.7 (00:00) 16.7 7.22 (18:20) 4.17 (23:50) 0 0 0 0 0
30-05-2019 20.7 (16:20) 6.9 (00:00) 13.8 8.89 (00:10) 5.83 (00:10) 0 0 0 0 0
29-05-2019 14 (17:00) 3.5 (00:00) 8.8 15.56 (11:50) 10.83 (10:00) 0 0 0 0 0
28-05-2019 12.8 (14:20) 4 (00:00) 8.4 15.28 (19:00) 11.39 (18:40) 0 0 0 0 0
27-05-2019 18.3 (14:40) 5.4 (00:00) 11.8 15 (19:10) 9.17 (18:30) 0 0 0 0 0
26-05-2019 13.7 (16:40) 4.9 (00:00) 9.3 12.5 (01:10) 8.33 (18:20) 0 0 0 0 0

Gráficas

Temp. máximas Temp. mínimas Temp. medias Precipitaciones Rachas de viento máximas Velocidades máximas media en intervalos de 10 minutos

Datos horarios

Fecha y hora oficial Temperatura (ºC) Velocidad del viento (km/h) Dirección del viento Racha (km/h) Dirección de racha Precipitación (mm) Presión (hPa) Tendencia (hPa) Humedad (%)
2019-06-24 23:00:00 20.5 17 Sudoeste 23 Sudoeste 0 -- -- 57
2019-06-24 22:00:00 20.5 8 Sur 16 Sur 0 -- -- 50
2019-06-24 21:00:00 23.7 11 Sudeste 25 Sudeste 0 -- -- 42
2019-06-24 20:00:00 25.8 15 Este 26 Este 0 -- -- 38
2019-06-24 19:00:00 25.4 16 Sudeste 34 Sudeste 0 -- -- 38
2019-06-24 18:00:00 27.9 22 Sudeste 33 Sudeste 0 -- -- 34
2019-06-24 17:00:00 28.3 20 Este 36 Sudeste 0 -- -- 31
2019-06-24 16:00:00 28.2 15 Sudeste 33 Este 0 -- -- 32
2019-06-24 15:00:00 29 10 Sudeste 26 Sudeste 0 -- -- 31
2019-06-24 14:00:00 27.1 10 Sur 25 Sudeste 0 -- -- 34
2019-06-24 13:00:00 26.9 10 Sur 27 Sur 0 -- -- 33
2019-06-24 12:00:00 25.4 15 Sur 23 Sur 0 -- -- 36
2019-06-24 11:00:00 23.6 11 Sur 26 Sur 0 -- -- 36
2019-06-24 10:00:00 23.1 10 Sudeste 17 Sur 0 -- -- 38
2019-06-24 09:00:00 19.8 10 Sur 21 Sur 0 -- -- 40
2019-06-24 08:00:00 17.8 12 Sudeste 28 Sudoeste 0 -- -- 45
2019-06-24 07:00:00 16.3 23 Sudoeste 40 Sudoeste 0 -- -- 44
2019-06-24 06:00:00 15.8 33 Sudoeste 47 Sudoeste 0 -- -- 47
2019-06-24 05:00:00 16.3 30 Sudoeste 48 Sudoeste 0 -- -- 44
2019-06-24 04:00:00 16.6 37 Sudoeste 51 Sudoeste 0 -- -- 42
2019-06-24 03:00:00 17 30 Sudoeste 41 Sudoeste 0 -- -- 45
2019-06-24 02:00:00 17.8 31 Sudoeste 39 Sudoeste 0 -- -- 50
2019-06-24 01:00:00 20 26 Sudoeste 39 Sudoeste 0 -- -- 45
2019-06-24 00:00:00 20.4 24 Sudoeste 34 Sudoeste 0 -- -- 45
2019-06-23 23:00:00 21.2 22 Sudoeste 37 Sur 0 -- -- 45
2019-06-23 22:00:00 22.6 23 Sur 39 Sur 0 -- -- 42
2019-06-23 21:00:00 24.4 17 Sur 24 Sur 0 -- -- 41
2019-06-23 20:00:00 27 13 Sur 30 Sur 0 -- -- 37
2019-06-23 19:00:00 29.3 13 Sudoeste 26 Sudoeste 0 -- -- 31
2019-06-23 18:00:00 29.5 12 Sudoeste 35 Sudoeste 0 -- -- 30
2019-06-23 17:00:00 29.6 15 Sur 35 Sudoeste 0 -- -- 30
2019-06-23 16:00:00 29.2 15 Sur 36 Sudoeste 0 -- -- 32
2019-06-23 15:00:00 28.9 15 Sudoeste 46 Sur 0 -- -- 32
2019-06-23 14:00:00 27.9 18 Sur 38 Sur 0 -- -- 33
2019-06-23 13:00:00 26.9 15 Sur 31 Sudoeste 0 -- -- 37
2019-06-23 12:00:00 25.8 17 Sur 36 Sur 0 -- -- 38
2019-06-23 11:00:00 23.4 26 Sur 40 Sur 0 -- -- 40
2019-06-23 10:00:00 21.8 21 Sudoeste 34 Sudoeste 0 -- -- 45
2019-06-23 09:00:00 20.2 12 Sudoeste 26 Sudoeste 0 -- -- 52
2019-06-23 08:00:00 17.5 15 Sudoeste 28 Sudoeste 0 -- -- 61
2019-06-23 07:00:00 15.8 19 Sudoeste 28 Sudoeste 0 -- -- 66
2019-06-23 06:00:00 15.2 15 Sudoeste 29 Sudoeste 0 -- -- 73
2019-06-23 05:00:00 16.1 21 Sudoeste 30 Sudoeste 0 -- -- 73
2019-06-23 04:00:00 15.7 14 Sudoeste 23 Sudoeste 0 -- -- 80
2019-06-23 03:00:00 16.3 17 Sudoeste 25 Sudoeste 0 -- -- 77
2019-06-23 02:00:00 16.2 13 Sudoeste 16 Sudoeste 0 -- -- 76
2019-06-23 01:00:00 17.3 9 Sudoeste 20 Sudoeste 0 -- -- 72
2019-06-23 00:00:00 18.1 15 Sudoeste 20 Sur 0 -- -- 68
2019-06-22 23:00:00 17.9 10 Sur 12 Sur 0 -- -- 67
2019-06-22 22:00:00 19.2 5 Sur 14 Sudeste 0 -- -- 53
2019-06-22 21:00:00 21.6 10 Este 26 Este 0 -- -- 48
2019-06-22 20:00:00 23.2 15 Este 27 Este 0 -- -- 45
2019-06-22 19:00:00 23.8 16 Este 32 Este 0 -- -- 45
2019-06-22 18:00:00 24.5 19 Este 31 Sudeste 0 -- -- 45
2019-06-22 17:00:00 26.9 9 Sudeste 23 Sudoeste 0 -- -- 35
2019-06-22 16:00:00 26 9 Oeste 21 Sudoeste 0 -- -- 39
2019-06-22 15:00:00 26.5 6 Norte 30 Sudoeste 0 -- -- 38
2019-06-22 14:00:00 25.3 10 Sudoeste 26 Oeste 0 -- -- 39
2019-06-22 13:00:00 24.9 8 Sudoeste 19 Sudoeste 0 -- -- 41
2019-06-22 12:00:00 21.8 9 Sudoeste 19 Sudoeste 0 -- -- 53
2019-06-22 11:00:00 20.2 10 Sudoeste 28 Sudoeste 0 -- -- 61
2019-06-22 10:00:00 18.7 18 Sudoeste 28 Sudoeste 0 -- -- 65
2019-06-22 09:00:00 16.8 19 Sudoeste 28 Sudoeste 0 -- -- 70
2019-06-22 08:00:00 14.2 13 Sudoeste 19 Sudoeste 0 -- -- 77
2019-06-22 07:00:00 9.6 0 Calma 8 Sur 0 -- -- 84
2019-06-22 06:00:00 9.4 4 Sur 10 Sudoeste 0 -- -- 82
2019-06-22 05:00:00 9.1 4 Sur 11 Sudoeste 0 -- -- 83
2019-06-22 04:00:00 9.4 4 Oeste 6 Noroeste 0 -- -- 80
2019-06-22 03:00:00 9.5 2 Norte 8 Noroeste 0 -- -- 80
2019-06-22 02:00:00 10.1 4 Noroeste 8 Noroeste 0 -- -- 80
2019-06-22 01:00:00 10.3 4 Noroeste 11 Noroeste 0 -- -- 83
2019-06-22 00:00:00 10.6 6 Noroeste 15 Norte 0 -- -- 83
2019-06-21 23:00:00 11.7 9 Noroeste 13 Noroeste 0 -- -- 79
2019-06-21 22:00:00 12.6 8 Noroeste 17 Norte 0 -- -- 76
2019-06-21 21:00:00 14.3 14 Norte 19 Nordeste 0 -- -- 71
2019-06-21 20:00:00 15.4 12 Norte 29 Nordeste 0 -- -- 68
2019-06-21 19:00:00 17.1 16 Nordeste 30 Nordeste 0 -- -- 61
2019-06-21 18:00:00 16.9 17 Nordeste 32 Este 0 -- -- 62
2019-06-21 17:00:00 18.3 19 Nordeste 32 Nordeste 0 -- -- 62
2019-06-21 16:00:00 17.7 17 Nordeste 32 Nordeste 0 -- -- 65
2019-06-21 15:00:00 16.4 14 Nordeste 32 Nordeste 0 -- -- 71
2019-06-21 14:00:00 16.4 16 Norte 27 Norte 0 -- -- 72
2019-06-21 13:00:00 16.2 13 Nordeste 28 Nordeste 0 -- -- 73
2019-06-21 12:00:00 16.2 10 Nordeste 19 Nordeste 0 -- -- 76
2019-06-21 11:00:00 14.3 4 Norte 12 Noroeste 0 -- -- 80
2019-06-21 10:00:00 13.6 4 Norte 10 Norte 0 -- -- 84
2019-06-21 09:00:00 12.1 9 Norte 15 Noroeste 0 -- -- 90
2019-06-21 08:00:00 11.4 10 Noroeste 14 Noroeste 0 -- -- 93
2019-06-21 07:00:00 10.7 11 Noroeste 18 Noroeste 0 -- -- 97
2019-06-21 06:00:00 10.6 8 Noroeste 20 Noroeste 0 -- -- 97
2019-06-21 05:00:00 11.3 9 Norte 13 Norte 0 -- -- 92
2019-06-21 04:00:00 11.5 7 Noroeste 15 Noroeste 0 -- -- 91
2019-06-21 03:00:00 12.3 8 Noroeste 13 Norte 0 -- -- 89
2019-06-21 02:00:00 12.6 5 Nordeste 13 Nordeste 0 -- -- 87
2019-06-21 01:00:00 12.8 6 Sudeste 11 Nordeste 0 -- -- 88
2019-06-21 00:00:00 13.2 3 Nordeste 14 Nordeste 0 -- -- 87
2019-06-20 23:00:00 14 5 Nordeste 15 Este 0 -- -- 86
2019-06-20 22:00:00 15.7 5 Este 19 Sudeste 0 -- -- 85
2019-06-20 21:00:00 16.8 11 Este 27 Nordeste 0 -- -- 82
2019-06-20 20:00:00 18.8 17 Nordeste 28 Nordeste 0 -- -- 65
2019-06-20 19:00:00 18.2 15 Nordeste 31 Nordeste 0 -- -- 65
2019-06-20 18:00:00 19.9 17 Nordeste 34 Nordeste 0 -- -- 63
2019-06-20 17:00:00 20.1 14 Nordeste 27 Nordeste 0 -- -- 58
2019-06-20 16:00:00 20.9 18 Nordeste 33 Nordeste 0 -- -- 55
2019-06-20 15:00:00 21.2 15 Nordeste 33 Nordeste 0 -- -- 56
2019-06-20 14:00:00 20.9 15 Este 27 Sudeste 0 -- -- 56
2019-06-20 13:00:00 22 14 Este 30 Nordeste 0 -- -- 54
2019-06-20 12:00:00 20.9 10 Este 21 Este 0 -- -- 59
2019-06-20 11:00:00 20.2 8 Este 16 Sudeste 0 -- -- 63
2019-06-20 10:00:00 19.3 8 Este 18 Este 0 -- -- 64
2019-06-20 09:00:00 17.8 12 Este 18 Sudeste 0 -- -- 64
2019-06-20 08:00:00 16 4 Nordeste 17 Sudeste 0 -- -- 65
2019-06-20 07:00:00 13.2 8 Sudoeste 16 Sudoeste 0 -- -- 71
2019-06-20 06:00:00 12.9 4 Sudeste 16 Sudoeste 0 -- -- 73
2019-06-20 05:00:00 13.5 4 Oeste 14 Sudoeste 0 -- -- 70
2019-06-20 04:00:00 13.6 7 Oeste 12 Sudoeste 0 -- -- 68
2019-06-20 03:00:00 14.2 4 Oeste 9 Oeste 0 -- -- 67
2019-06-20 02:00:00 14.7 8 Oeste 13 Noroeste 0 -- -- 66
2019-06-20 01:00:00 16.5 8 Noroeste 18 Noroeste 0 -- -- 59
2019-06-20 00:00:00 17.6 9 Noroeste 17 Noroeste 0 -- -- 54
2019-06-19 23:00:00 18.3 5 Noroeste 14 Oeste 0 -- -- 48
2019-06-19 22:00:00 19.4 10 Oeste 15 Oeste 0 -- -- 45
2019-06-19 21:00:00 22 8 Noroeste 22 Noroeste 0 -- -- 40
2019-06-19 20:00:00 23.8 13 Noroeste 23 Noroeste 0 -- -- 38
2019-06-19 19:00:00 25.6 8 Oeste 26 Oeste 0 -- -- 37
2019-06-19 18:00:00 25.8 14 Oeste 25 Oeste 0 -- -- 36
2019-06-19 17:00:00 25.9 14 Oeste 28 Oeste 0 -- -- 38
2019-06-19 16:00:00 25.6 13 Oeste 28 Oeste 0 -- -- 40
2019-06-19 15:00:00 25.2 13 Noroeste -- -- -- -- -- 41
2019-06-19 14:00:00 23.7 20 Noroeste 38 Sudoeste 0 -- -- 42
2019-06-19 13:00:00 23.3 17 Oeste 40 Oeste 0 -- -- 44
2019-06-19 12:00:00 -- -- -- -- -- -- -- -- --
2019-06-19 11:00:00 -- -- -- -- -- -- -- -- --
2019-06-19 10:00:00 -- -- -- -- -- -- -- -- --
2019-06-19 09:00:00 -- -- -- -- -- -- -- -- --
2019-06-19 08:00:00 -- -- -- -- -- -- -- -- --
2019-06-19 07:00:00 -- -- -- -- -- -- -- -- --
2019-06-19 06:00:00 -- -- -- -- -- -- -- -- --
2019-06-19 05:00:00 -- -- -- -- -- -- -- -- --
2019-06-19 04:00:00 -- -- -- -- -- -- -- -- --
2019-06-19 03:00:00 -- -- -- -- -- -- -- -- --
2019-06-19 02:00:00 -- -- -- -- -- -- -- -- --
2019-06-19 01:00:00 -- -- -- -- -- -- -- -- --
2019-06-19 00:00:00 -- -- -- -- -- -- -- -- --
2019-06-18 23:00:00 -- -- -- -- -- -- -- -- --
2019-06-18 22:00:00 -- -- -- -- -- -- -- -- --
2019-06-18 21:00:00 -- -- -- -- -- -- -- -- --
2019-06-18 20:00:00 -- -- -- -- -- -- -- -- --
2019-06-18 19:00:00 27.1 14 Oeste 31 Oeste 0 -- -- 27
2019-06-18 18:00:00 27.2 19 Sudoeste 38 Oeste 0 -- -- 27
2019-06-18 17:00:00 27.4 23 Sudoeste 34 Sudoeste 0 -- -- 28
2019-06-18 16:00:00 28 17 Sudoeste 38 Sudoeste 0 -- -- 27
2019-06-18 15:00:00 27.4 18 Sudoeste 39 Sudoeste 0 -- -- 29
2019-06-18 14:00:00 26.3 14 Sur 42 Sur 0 -- -- 29
2019-06-18 13:00:00 26.3 14 Sudoeste 32 Sudoeste 0 -- -- 31
2019-06-18 12:00:00 25.5 4 Oeste 30 Oeste 0 -- -- 33
2019-06-18 11:00:00 23.1 5 Sudoeste 24 Sudoeste 0 -- -- 39
2019-06-18 10:00:00 19.5 15 Sudoeste 28 Sudoeste 0 -- -- 50
2019-06-18 09:00:00 16.7 25 Sudoeste 34 Sudoeste 0 -- -- 53
2019-06-18 08:00:00 15.9 27 Sudoeste 34 Sudoeste 0 -- -- 52
2019-06-18 07:00:00 16 23 Sudoeste 28 Sudoeste 0 -- -- 52
2019-06-18 06:00:00 16.5 19 Sudoeste 28 Sudoeste 0 -- -- 50
2019-06-18 05:00:00 16.4 22 Sudoeste 28 Sudoeste 0 -- -- 51
2019-06-18 04:00:00 16 18 Sudoeste 24 Sudoeste 0 -- -- 54
2019-06-18 03:00:00 16.3 18 Sudoeste 27 Sudoeste 0 -- -- 55
2019-06-18 02:00:00 17.4 16 Sudoeste 24 Sudoeste 0 -- -- 53
2019-06-18 01:00:00 17.9 17 Sudoeste 27 Sur 0 -- -- 53
2019-06-18 00:00:00 18.4 22 Sur 30 Sur 0 -- -- 54
2019-06-17 23:00:00 18.3 14 Sudoeste 24 Sudoeste 0 -- -- 54
2019-06-17 22:00:00 20 14 Sur 23 Sudeste 0 -- -- 50
2019-06-17 21:00:00 22.2 12 Sudeste 29 Sudeste 0 -- -- 47
2019-06-17 20:00:00 24 19 Este 31 Este 0 -- -- 42
2019-06-17 19:00:00 25.7 10 Este 27 Este 0 -- -- 29
2019-06-17 18:00:00 27.5 11 Sudeste 24 Sur 0 -- -- 27
2019-06-17 17:00:00 27.9 9 Este 29 Sudeste 0 -- -- 27
2019-06-17 16:00:00 27 8 Sudeste 24 Sudeste 0 -- -- 28
2019-06-17 15:00:00 25.9 6 Sur 22 Sudoeste 0 -- -- 31
2019-06-17 14:00:00 25.6 6 Este 27 Sudeste 0 -- -- 26
2019-06-17 13:00:00 24.9 8 Oeste 21 Sur 0 -- -- 32
2019-06-17 12:00:00 23.2 3 Noroeste 10 Nordeste 0 -- -- 31
2019-06-17 11:00:00 23.6 5 Este 10 Este 0 -- -- 35
2019-06-17 10:00:00 22.5 0 Calma 8 Sudeste 0 -- -- 40
2019-06-17 09:00:00 19.8 5 Este 11 Sudeste 0 -- -- 57
2019-06-17 08:00:00 16.2 0 Calma 7 Sudoeste 0 -- -- 67
2019-06-17 07:00:00 12.9 4 Sur 13 Sudoeste 0 -- -- 70
2019-06-17 06:00:00 11.9 7 Sudoeste 21 Sudoeste 0 -- -- 75
2019-06-17 05:00:00 13.1 5 Oeste 13 Noroeste 0 -- -- 66
2019-06-17 04:00:00 13.8 6 Oeste 26 Sudoeste 0 -- -- 61
2019-06-17 03:00:00 13.8 20 Sudoeste 28 Sudoeste 0 -- -- 66
2019-06-17 02:00:00 14.7 21 Sudoeste 27 Sudoeste 0 -- -- 62
2019-06-17 01:00:00 14.6 23 Sudoeste 29 Sudoeste 0 -- -- 65
2019-06-17 00:00:00 15.1 25 Sudoeste 30 Sudoeste 0 -- -- 66
2019-06-16 23:00:00 16.6 21 Sur 31 Sur 0 -- -- 62
2019-06-16 22:00:00 16.9 10 Sur 15 Sur 0 -- -- 62
2019-06-16 21:00:00 19 10 Sudeste 24 Este 0 -- -- 51
2019-06-16 20:00:00 20.4 14 Este 26 Sudeste 0 -- -- 45
2019-06-16 19:00:00 21.8 16 Sudeste 32 Este 0 -- -- 43
2019-06-16 18:00:00 22.8 15 Este 26 Este 0 -- -- 38
2019-06-16 17:00:00 21.6 14 Este 28 Este 0 -- -- 41
2019-06-16 16:00:00 21.8 14 Nordeste 29 Nordeste 0 -- -- 40
2019-06-16 15:00:00 21.8 14 Este 24 Sudoeste 0 -- -- 41
2019-06-16 14:00:00 24.3 7 Noroeste 28 Sudoeste 0 -- -- 30
2019-06-16 13:00:00 22.8 12 Sudoeste 27 Sur 0 -- -- 36
2019-06-16 12:00:00 21.7 11 Oeste 23 Sudoeste 0 -- -- 38
2019-06-16 11:00:00 19.5 9 Sur 26 Sur 0 -- -- 44
2019-06-16 10:00:00 17.3 11 Sur 20 Sur 0 -- -- 50
2019-06-16 09:00:00 15.5 12 Sudeste 19 Sudeste 0 -- -- 56
2019-06-16 08:00:00 13.5 7 Sudeste 13 Sudeste 0 -- -- 67
2019-06-16 07:00:00 8.5 4 Sudeste 9 Sudeste 0 -- -- 77
2019-06-16 06:00:00 7.7 3 Sudeste 8 Sudeste 0 -- -- 77
2019-06-16 05:00:00 8.8 6 Sudeste 11 Sur 0 -- -- 73
2019-06-16 04:00:00 8.9 8 Sur 10 Sur 0 -- -- 73
2019-06-16 03:00:00 9 6 Sur 9 Sur 0 -- -- 74
2019-06-16 02:00:00 10.2 0 Calma 15 Norte 0 -- -- 70
2019-06-16 01:00:00 11.2 5 Noroeste 13 Oeste 0 -- -- 66
2019-06-16 00:00:00 11.4 5 Oeste 14 Nordeste 0 -- -- 65
2019-06-15 23:00:00 12.8 4 Norte 19 Norte 0 -- -- 59
2019-06-15 22:00:00 14.3 10 Nordeste 18 Nordeste 0 -- -- 54
2019-06-15 21:00:00 16.6 8 Nordeste 20 Nordeste 0 -- -- 49
2019-06-15 20:00:00 19 10 Norte 20 Norte 0 -- -- 37
2019-06-15 19:00:00 21.1 3 Norte 25 Noroeste 0 -- -- 33
2019-06-15 18:00:00 20.1 11 Norte 31 Oeste 0 -- -- 35
2019-06-15 17:00:00 19.9 11 Norte 27 Norte 0 -- -- 36
2019-06-15 16:00:00 19.3 17 Noroeste 30 Norte 0 -- -- 40
2019-06-15 15:00:00 18.1 12 Norte 24 Norte 0 -- -- 45
2019-06-15 14:00:00 17.7 12 Norte 27 Norte 0 -- -- 44
2019-06-15 13:00:00 16.3 15 Norte 29 Norte 0 -- -- 48
2019-06-15 12:00:00 15.3 12 Norte 24 Noroeste 0 -- -- 51
2019-06-15 11:00:00 14.5 14 Noroeste 24 Noroeste 0 -- -- 53
2019-06-15 10:00:00 13 16 Noroeste 26 Noroeste 0 -- -- 58
2019-06-15 09:00:00 11.9 16 Noroeste 27 Noroeste 0 -- -- 60
2019-06-15 08:00:00 10.8 14 Noroeste 24 Noroeste 0 -- -- 60
2019-06-15 07:00:00 7.7 12 Noroeste 22 Oeste 0 -- -- 66
2019-06-15 06:00:00 8.7 14 Oeste 24 Oeste 0 -- -- 59
2019-06-15 05:00:00 9.1 14 Oeste 28 Oeste 0 -- -- 57
2019-06-15 04:00:00 10.3 14 Oeste 24 Oeste 0 -- -- 53
2019-06-15 03:00:00 11.2 17 Oeste 29 Oeste 0 -- -- 47
2019-06-15 02:00:00 11.8 17 Oeste 27 Oeste 0 -- -- 45
2019-06-15 01:00:00 12.7 13 Oeste 26 Oeste 0 -- -- 44
2019-06-15 00:00:00 12.5 12 Oeste 20 Oeste 0 -- -- 45
2019-06-14 23:00:00 13.6 9 Oeste 17 Oeste 0 -- -- 43
2019-06-14 22:00:00 15.4 8 Oeste 17 Oeste 0 -- -- 36
2019-06-14 21:00:00 18.5 8 Oeste 22 Noroeste 0 -- -- 34
2019-06-14 20:00:00 21.2 12 Oeste 32 Sudoeste 0 -- -- 31
2019-06-14 19:00:00 22.6 16 Sudoeste 39 Oeste 0 -- -- 33
2019-06-14 18:00:00 23.6 16 Noroeste 33 Oeste 0 -- -- 31
2019-06-14 17:00:00 24 15 Oeste 36 Oeste 0 -- -- 32
2019-06-14 16:00:00 23.1 15 Oeste 37 Oeste 0 -- -- 37
2019-06-14 15:00:00 22.5 12 Noroeste 34 Oeste 0 -- -- 47
2019-06-14 14:00:00 20.6 17 Oeste 30 Oeste 0 -- -- 51
2019-06-14 13:00:00 19 16 Oeste 28 Oeste 0 -- -- 67
2019-06-14 12:00:00 15 4 Oeste 21 Oeste 0 -- -- 80
2019-06-14 11:00:00 15.6 13 Oeste 32 Sudoeste 0 -- -- 76
2019-06-14 10:00:00 14.9 7 Oeste 21 Noroeste 0 -- -- 79
2019-06-14 09:00:00 13.4 0 Calma 8 Este 0 -- -- 83
2019-06-14 08:00:00 12.5 8 Sudeste 15 Sudeste 0 -- -- 83
2019-06-14 07:00:00 12.5 4 Noroeste 9 Oeste 0 -- -- 79
2019-06-14 06:00:00 11.1 2 Sudoeste 10 Noroeste 0 -- -- 86
2019-06-14 05:00:00 10.7 8 Noroeste 17 Noroeste 0 -- -- 86
2019-06-14 04:00:00 12.8 4 Sur 12 Sudoeste 0 -- -- 76
2019-06-14 03:00:00 13.5 4 Este 8 Sudoeste 0 -- -- 76
2019-06-14 02:00:00 14.4 4 Sudeste 27 Sudoeste 0 -- -- 73
2019-06-14 01:00:00 14.1 7 Sur 25 Sur 0 -- -- 77
2019-06-14 00:00:00 14 14 Sur 21 Sur 0 -- -- 78
2019-06-13 23:00:00 13.9 3 Nordeste 19 Sur 0 -- -- 76
2019-06-13 22:00:00 14.5 3 Sudeste 19 Sur 0 -- -- 72
2019-06-13 21:00:00 16.9 13 Sur 22 Sur 0 -- -- 61
2019-06-13 20:00:00 18.5 18 Sur 26 Sur 0 -- -- 55
2019-06-13 19:00:00 20.2 15 Sur 24 Sudoeste 0 -- -- 50
2019-06-13 18:00:00 20.5 9 Sur 20 Sur 0 -- -- 48
2019-06-13 17:00:00 21.6 12 Sur 27 Sudoeste 0 -- -- 43
2019-06-13 16:00:00 21.4 10 Sur 32 Sudoeste 0 -- -- 43
2019-06-13 15:00:00 19.8 14 Sudoeste 33 Sur 0 -- -- 53
2019-06-13 14:00:00 19.4 24 Sur 36 Sur 0 -- -- 57
2019-06-13 13:00:00 17.6 16 Sur 36 Sur 0 -- -- 64
2019-06-13 12:00:00 16.8 17 Sur 39 Sur 0 -- -- 67
2019-06-13 11:00:00 17.5 19 Sur 40 Sudoeste 0 -- -- 65
2019-06-13 10:00:00 15.3 22 Sudoeste 40 Sur 0 -- -- 72
2019-06-13 09:00:00 13.8 15 Sur 31 Sur 0 -- -- 78
2019-06-13 08:00:00 11.7 15 Sudoeste 35 Sur 0 -- -- 83
2019-06-13 07:00:00 10.3 23 Sur 35 Sur 0 -- -- 86
2019-06-13 06:00:00 9.3 21 Sudoeste 43 Sur 0 -- -- 88
2019-06-13 05:00:00 9.1 23 Sudoeste 38 Sudoeste 0 -- -- 87
2019-06-13 04:00:00 8.7 21 Sudoeste 36 Sudoeste 0 -- -- 83
2019-06-13 03:00:00 8.7 22 Sudoeste 31 Sudoeste 0 -- -- 73
2019-06-13 02:00:00 8.9 14 Sudoeste 33 Sur 0 -- -- 71
2019-06-13 01:00:00 9.5 19 Sur 30 Sur 0 -- -- 72
2019-06-13 00:00:00 9.7 17 Sur 30 Sudoeste 0 -- -- 73
2019-06-12 23:00:00 9.7 8 Sur 17 Sudeste 0 -- -- 78
2019-06-12 22:00:00 11.8 9 Sudeste 23 Este 0 -- -- 69
2019-06-12 21:00:00 14.3 16 Este 32 Este 0 -- -- 48
2019-06-12 20:00:00 15.3 18 Este 36 Este 0 -- -- 42
2019-06-12 19:00:00 16.1 21 Este 36 Este 0 -- -- 41
2019-06-12 18:00:00 17.5 16 Este 30 Este 0 -- -- 38
2019-06-12 17:00:00 17 17 Nordeste 35 Sur 0 -- -- 39
2019-06-12 16:00:00 18.4 10 Sur 28 Sur 0 -- -- 34
2019-06-12 15:00:00 16.1 6 Sudoeste 28 Oeste 0 -- -- 40
2019-06-12 14:00:00 17.5 12 Oeste 29 Noroeste 0 -- -- 37
2019-06-12 13:00:00 15 8 Sudoeste 24 Sudoeste 0 -- -- 39
2019-06-12 12:00:00 14.9 5 Norte 26 Oeste 0 -- -- 49
2019-06-12 11:00:00 13.2 11 Sudoeste 21 Sur 0 -- -- 51
2019-06-12 10:00:00 10.6 10 Sur 16 Sur 0 -- -- 62
2019-06-12 09:00:00 9.2 8 Sudeste 16 Sudeste 0 -- -- 76
2019-06-12 08:00:00 6.5 3 Este 10 Sudeste 0 -- -- 86
2019-06-12 07:00:00 2.7 7 Sur 10 Sur 0 -- -- 92
2019-06-12 06:00:00 1.4 2 Oeste 7 Sudoeste 0 -- -- 95
2019-06-12 05:00:00 1.2 5 Sudoeste 9 Sudoeste 0 -- -- 95
2019-06-12 04:00:00 1.6 6 Sudoeste 10 Sudoeste 0 -- -- 93
2019-06-12 03:00:00 2.3 3 Sudoeste 8 Noroeste 0 -- -- 93
2019-06-12 02:00:00 2.9 5 Noroeste 15 Noroeste 0 -- -- 92
2019-06-12 01:00:00 4 8 Norte 12 Norte 0 -- -- 91
2019-06-12 00:00:00 4.6 7 Noroeste 13 Oeste 0 -- -- 89
2019-06-11 23:00:00 4.6 5 Noroeste 22 Norte 0 -- -- 87
2019-06-11 22:00:00 6.5 19 Norte 29 Norte 0 -- -- 74
2019-06-11 21:00:00 8 21 Norte 30 Norte 0 -- -- 69
2019-06-11 20:00:00 9.3 16 Norte 24 Norte 0 -- -- 63
2019-06-11 19:00:00 8.8 18 Norte 27 Noroeste 0 -- -- 68
2019-06-11 18:00:00 8.5 14 Noroeste 32 Noroeste 0 -- -- 72
2019-06-11 17:00:00 8.2 19 Noroeste 35 Norte 0 -- -- 77
2019-06-11 16:00:00 9 18 Norte 28 Norte 0 -- -- 77
2019-06-11 15:00:00 6.4 12 Norte 19 Norte 0.2 -- -- 92
2019-06-11 14:00:00 5.1 15 Norte 24 Norte 0.2 -- -- 93
2019-06-11 13:00:00 4.6 16 Norte 31 Noroeste 0 -- -- 94
2019-06-11 12:00:00 4.6 15 Norte 23 Norte 0 -- -- 94
2019-06-11 11:00:00 4.6 14 Norte 21 Norte 0 -- -- 95
2019-06-11 10:00:00 4.5 15 Norte 26 Norte 0 -- -- 94
2019-06-11 09:00:00 4.8 15 Noroeste 26 Norte 0 -- -- 91
2019-06-11 08:00:00 5 10 Noroeste 19 Noroeste 0 -- -- 95
2019-06-11 07:00:00 4.8 10 Noroeste 19 Noroeste 0 -- -- 90
2019-06-11 06:00:00 5.1 11 Noroeste 18 Noroeste 0 -- -- 87
2019-06-11 05:00:00 5.7 12 Noroeste 20 Noroeste 0 -- -- 77
2019-06-11 04:00:00 6.3 12 Noroeste 19 Noroeste 0 -- -- 76
2019-06-11 03:00:00 6.5 6 Noroeste 9 Noroeste 0 -- -- 78
2019-06-11 02:00:00 6.2 4 Noroeste 9 Norte 0 -- -- 79
2019-06-11 01:00:00 6.2 8 Noroeste 18 Noroeste 0 -- -- 76
2019-06-11 00:00:00 6.1 8 Noroeste 15 Noroeste 0 -- -- 81
2019-06-10 23:00:00 7.1 6 Norte 20 Norte 0 -- -- 79
2019-06-10 22:00:00 8.4 12 Norte 26 Norte 0 -- -- 75
2019-06-10 21:00:00 10.5 15 Norte 24 Norte 0 -- -- 69
2019-06-10 20:00:00 11.6 14 Norte 22 Norte 0 -- -- 65
2019-06-10 19:00:00 13.6 12 Nordeste 22 Norte 0 -- -- 62
2019-06-10 18:00:00 15 14 Norte 29 Norte 0 -- -- 61
2019-06-10 17:00:00 16.7 11 Nordeste 27 Este 0 -- -- 55
2019-06-10 16:00:00 17.3 12 Norte 27 Noroeste 0 -- -- 53
2019-06-10 15:00:00 18.3 13 Noroeste 29 Norte 0 -- -- 53
2019-06-10 14:00:00 16.9 15 Noroeste 28 Noroeste 0 -- -- 55
2019-06-10 13:00:00 16.6 12 Noroeste 27 Noroeste 0 -- -- 63
2019-06-10 12:00:00 14.8 18 Norte 28 Noroeste 0 -- -- 71
2019-06-10 11:00:00 13 19 Norte 27 Norte 0 -- -- 73
2019-06-10 10:00:00 11.6 19 Noroeste 27 Noroeste 0 -- -- 79
2019-06-10 09:00:00 10.3 17 Noroeste 22 Noroeste 0 -- -- 87
2019-06-10 08:00:00 8.1 13 Noroeste 20 Noroeste 0 -- -- 98
2019-06-10 07:00:00 7.6 10 Noroeste 22 Noroeste 0 -- -- 99
2019-06-10 06:00:00 7.5 9 Norte 17 Noroeste 0 -- -- 98
2019-06-10 05:00:00 7.8 9 Norte 19 Noroeste 0 -- -- 97
2019-06-10 04:00:00 8.3 14 Noroeste 22 Norte 0 -- -- 96
2019-06-10 03:00:00 8.3 11 Norte 27 Norte 0 -- -- 96
2019-06-10 02:00:00 8.5 15 Noroeste 24 Noroeste 0 -- -- 95
2019-06-10 01:00:00 8.6 14 Noroeste 22 Noroeste 0 -- -- 95
2019-06-10 00:00:00 10.6 8 Noroeste 17 Noroeste 0 -- -- 86
2019-06-09 23:00:00 12 12 Noroeste 25 Noroeste 0 -- -- 81
2019-06-09 22:00:00 14.4 15 Noroeste 35 Norte 0 -- -- 74
2019-06-09 21:00:00 19.1 0 Calma 17 Noroeste 0 -- -- 46
2019-06-09 20:00:00 20.1 11 Noroeste 24 Noroeste 0 -- -- 37
2019-06-09 19:00:00 23.1 17 Noroeste 28 Noroeste 0 -- -- 31
2019-06-09 18:00:00 23.1 18 Noroeste 30 Noroeste 0 -- -- 35
2019-06-09 17:00:00 23.1 14 Noroeste 24 Noroeste 0 -- -- 34
2019-06-09 16:00:00 23 15 Norte 32 Noroeste 0 -- -- 36
2019-06-09 15:00:00 21.7 12 Norte 25 Noroeste 0 -- -- 39
2019-06-09 14:00:00 21.5 8 Noroeste 29 Sudoeste 0 -- -- 43
2019-06-09 13:00:00 21.5 13 Noroeste 29 Noroeste 0 -- -- 43
2019-06-09 12:00:00 20.7 8 Norte 17 Norte 0 -- -- 48
2019-06-09 11:00:00 20.3 5 Oeste 21 Sudoeste 0 -- -- 49
2019-06-09 10:00:00 19.1 8 Oeste 23 Sudoeste 0 -- -- 53
2019-06-09 09:00:00 15.9 13 Sudoeste 23 Sudoeste 0 -- -- 59
2019-06-09 08:00:00 13.4 17 Sudoeste 25 Sudoeste 0 -- -- 61
2019-06-09 07:00:00 12.3 23 Sudoeste 35 Sudoeste 0 -- -- 57
2019-06-09 06:00:00 12.9 23 Sudoeste 37 Sudoeste 0 -- -- 54
2019-06-09 05:00:00 13.8 27 Sudoeste 38 Sudoeste 0 -- -- 48
2019-06-09 04:00:00 13.9 21 Sudoeste 35 Sudoeste 0 -- -- 52
2019-06-09 03:00:00 13.9 21 Sudoeste 35 Sudoeste 0 -- -- 56
2019-06-09 02:00:00 13.9 20 Sudoeste 35 Sudoeste 0 -- -- 57
2019-06-09 01:00:00 13.6 25 Sudoeste 33 Sudoeste 0 -- -- 57
2019-06-09 00:00:00 14.2 25 Sudoeste 35 Sudoeste 0 -- -- 55
2019-06-08 23:00:00 14.1 27 Sur 37 Sur 0 -- -- 58
2019-06-08 22:00:00 15 25 Sur 38 Sur 0 -- -- 57
2019-06-08 21:00:00 16.2 21 Sur 33 Sur 0 -- -- 56
2019-06-08 20:00:00 17.5 15 Sur 40 Sur 0 -- -- 56
2019-06-08 19:00:00 19.6 26 Sur 40 Sudoeste 0 -- -- 49
2019-06-08 18:00:00 21.7 20 Sudoeste 35 Sudoeste 0 -- -- 47
2019-06-08 17:00:00 21.2 16 Sudeste 33 Sudeste 0 -- -- 45
2019-06-08 16:00:00 21.1 14 Sudeste 30 Este 0 -- -- 47
2019-06-08 15:00:00 19.7 19 Este 35 Este 0 -- -- 51
2019-06-08 14:00:00 17.9 17 Este 32 Este 0 -- -- 55
2019-06-08 13:00:00 18.7 15 Este 27 Sudeste 0 -- -- 54
2019-06-08 12:00:00 17.3 17 Este 27 Sudeste 0 -- -- 54
2019-06-08 11:00:00 15.2 15 Este 27 Este 0 -- -- 55
2019-06-08 10:00:00 14.7 16 Sudeste 26 Sudeste 0 -- -- 51
2019-06-08 09:00:00 12.1 14 Este 21 Sudeste 0 -- -- 59
2019-06-08 08:00:00 10.1 12 Sudeste 20 Sudeste 0 -- -- 62
2019-06-08 07:00:00 8 9 Sur 13 Sudeste 0 -- -- 64
2019-06-08 06:00:00 6.5 9 Sur 12 Sur 0 -- -- 68
2019-06-08 05:00:00 7.3 9 Sur 12 Sur 0 -- -- 67
2019-06-08 04:00:00 7 7 Sur 9 Sur 0 -- -- 68
2019-06-08 03:00:00 8.8 2 Sur 11 Sudeste 0 -- -- 57
2019-06-08 02:00:00 8.3 5 Sur 8 Sur 0 -- -- 58
2019-06-08 01:00:00 9.7 3 Oeste 13 Noroeste 0 -- -- 48
2019-06-08 00:00:00 9.2 4 Oeste 9 Oeste 0 -- -- 54
2019-06-07 23:00:00 9.1 5 Oeste 12 Oeste 0 -- -- 56
2019-06-07 22:00:00 10.3 4 Este 31 Noroeste 0 -- -- 54
2019-06-07 21:00:00 12.6 18 Noroeste 28 Noroeste 0 -- -- 48
2019-06-07 20:00:00 14.7 17 Noroeste 25 Noroeste 0 -- -- 42
2019-06-07 19:00:00 15.8 16 Noroeste 31 Norte 0 -- -- 40
2019-06-07 18:00:00 15.8 19 Noroeste 33 Noroeste 0 -- -- 41
2019-06-07 17:00:00 15.8 18 Noroeste 35 Norte 0 -- -- 45
2019-06-07 16:00:00 15.6 19 Noroeste 39 Noroeste 0 -- -- 47
2019-06-07 15:00:00 15.1 11 Noroeste 32 Noroeste 0 -- -- 44
2019-06-07 14:00:00 14.6 17 Noroeste 35 Noroeste 0 -- -- 51
2019-06-07 13:00:00 14.6 16 Oeste 35 Noroeste 0 -- -- 45
2019-06-07 12:00:00 12.3 12 Noroeste 28 Noroeste 0 -- -- 66
2019-06-07 11:00:00 8.5 13 Noroeste 21 Noroeste 0 -- -- 82
2019-06-07 10:00:00 5.7 11 Noroeste 24 Noroeste 0 -- -- 92
2019-06-07 09:00:00 5 15 Noroeste 36 Noroeste 0 -- -- 96
2019-06-07 08:00:00 6.4 24 Noroeste 35 Noroeste 0 -- -- 92
2019-06-07 07:00:00 10.6 5 Sudoeste 24 Sudoeste 0 -- -- 70
2019-06-07 06:00:00 9.8 12 Sur 21 Sur 0 -- -- 71
2019-06-07 05:00:00 9.2 9 Sudoeste 26 Sur 0 -- -- 76
2019-06-07 04:00:00 9.5 7 Sur 21 Sur 0 -- -- 82
2019-06-07 03:00:00 9.5 5 Sudeste 17 Sudeste 0 -- -- 84
2019-06-07 02:00:00 10.5 12 Sur 31 Sur 0 -- -- 76
2019-06-07 01:00:00 10.7 5 Sudeste 48 Sur 0 -- -- 75
2019-06-07 00:00:00 11.6 22 Sudeste 40 Sudeste 0 -- -- 70
2019-06-06 23:00:00 12.4 20 Sudeste 39 Sur 0 -- -- 64
2019-06-06 22:00:00 13.6 18 Sur 39 Sur 0 -- -- 63
2019-06-06 21:00:00 15.4 17 Sur 39 Sur 0 -- -- 55
2019-06-06 20:00:00 17.7 21 Sur 37 Sudoeste 0 -- -- 49
2019-06-06 19:00:00 19.6 23 Sudoeste 53 Sudoeste 0 -- -- 39
2019-06-06 18:00:00 20.4 27 Sudoeste 49 Sur 0 -- -- 33
2019-06-06 17:00:00 20.4 22 Sudoeste 42 Sudoeste 0 -- -- 35
2019-06-06 16:00:00 19.5 17 Sudoeste 48 Sudoeste 0 -- -- 36
2019-06-06 15:00:00 19.1 22 Sudoeste 45 Sudoeste 0 -- -- 36
2019-06-06 14:00:00 18.8 18 Sudoeste 45 Sudoeste 0 -- -- 34
2019-06-06 13:00:00 17.7 18 Sudoeste 43 Sudoeste 0 -- -- 34
2019-06-06 12:00:00 16.3 15 Sudoeste 33 Sudoeste 0 -- -- 45
2019-06-06 11:00:00 14.7 20 Sudoeste 33 Sur 0 -- -- 46
2019-06-06 10:00:00 13.5 16 Sur 27 Sur 0 -- -- 51
2019-06-06 09:00:00 11.1 11 Sur 22 Sur 0 -- -- 66
2019-06-06 08:00:00 8.5 14 Sur 21 Sudoeste 0 -- -- 76
2019-06-06 07:00:00 5.5 16 Sudoeste 20 Sur 0 -- -- 91
2019-06-06 06:00:00 5.8 15 Sur 19 Sur 0 -- -- 93
2019-06-06 05:00:00 4.9 13 Sudoeste 15 Sudoeste 0 -- -- 94
2019-06-06 04:00:00 5 3 Sur 12 Este 0 -- -- 95
2019-06-06 03:00:00 5 9 Este 14 Este 0 -- -- 95
2019-06-06 02:00:00 5.3 4 Sudeste 9 Sudeste 0 -- -- 94
2019-06-06 01:00:00 5 3 Sudeste 7 Sudoeste 0 -- -- 94
2019-06-06 00:00:00 5.8 4 Oeste 6 Oeste 0 -- -- 91
2019-06-05 23:00:00 6.3 2 Este 7 Noroeste 0 -- -- 89
2019-06-05 22:00:00 7.3 6 Oeste 14 Noroeste 0 -- -- 86
2019-06-05 21:00:00 9.4 9 Norte 19 Norte 0 -- -- 79
2019-06-05 20:00:00 10.8 13 Norte 20 Norte 0 -- -- 73
2019-06-05 19:00:00 10.8 15 Norte 36 Norte 0 -- -- 74
2019-06-05 18:00:00 12.6 19 Noroeste 36 Noroeste 0 -- -- 62
2019-06-05 17:00:00 12.7 25 Noroeste 50 Noroeste 0 -- -- 59
2019-06-05 16:00:00 12.8 28 Noroeste 39 Noroeste 0 -- -- 66
2019-06-05 15:00:00 9.9 23 Noroeste 50 Noroeste 0.2 -- -- 82
2019-06-05 14:00:00 10.7 27 Noroeste 41 Noroeste 0.2 -- -- 78
2019-06-05 13:00:00 7.2 33 Noroeste 68 Noroeste 0.6 -- -- 85
2019-06-05 12:00:00 11.2 27 Noroeste 51 Noroeste 0 -- -- 78
2019-06-05 11:00:00 12.6 21 Noroeste 35 Oeste 0 -- -- 77
2019-06-05 10:00:00 10.3 24 Noroeste 37 Noroeste 0.4 -- -- 89
2019-06-05 09:00:00 10.3 10 Noroeste 42 Oeste 1.4 -- -- 91
2019-06-05 08:00:00 12.5 12 Noroeste 22 Oeste 0 -- -- 78
2019-06-05 07:00:00 11.8 11 Noroeste 21 Noroeste 0 -- -- 79
2019-06-05 06:00:00 10.4 0 Calma 21 Sudoeste 0 -- -- 87
2019-06-05 05:00:00 10.7 5 Sudeste 13 Sudeste 0 -- -- 83
2019-06-05 04:00:00 12.4 6 Sudeste 13 Sudeste 0 -- -- 77
2019-06-05 03:00:00 12.6 5 Sudoeste 12 Sudoeste 0 -- -- 70
2019-06-05 02:00:00 12.6 3 Sudoeste 10 Sudoeste 0 -- -- 71
2019-06-05 01:00:00 13.4 0 Calma 11 Sudoeste 0 -- -- 75
2019-06-05 00:00:00 17.2 8 Oeste 21 Sudoeste 0 -- -- 60
2019-06-04 23:00:00 19.5 15 Sudoeste 29 Sudoeste 0 -- -- 52
2019-06-04 22:00:00 19.7 7 Oeste 13 Oeste 0 -- -- 43
2019-06-04 21:00:00 22 6 Oeste 26 Oeste 0 -- -- 36
2019-06-04 20:00:00 24.4 12 Oeste 26 Oeste 0 -- -- 30
2019-06-04 19:00:00 24.5 13 Noroeste 36 Sudoeste 0 -- -- 30
2019-06-04 18:00:00 25.8 13 Sudoeste 34 Sudoeste 0 -- -- 26
2019-06-04 17:00:00 26.4 19 Oeste 43 Oeste 0 -- -- 25
2019-06-04 16:00:00 26.8 18 Oeste 38 Oeste 0 -- -- 23
2019-06-04 15:00:00 26.6 19 Sudoeste 46 Sudoeste 0 -- -- 26
2019-06-04 14:00:00 26.4 20 Oeste 44 Oeste 0 -- -- 29
2019-06-04 13:00:00 25.4 17 Sudoeste 33 Sudoeste 0 -- -- 34
2019-06-04 12:00:00 24.2 17 Sudoeste 35 Sudoeste 0 -- -- 36
2019-06-04 11:00:00 23.1 13 Oeste 28 Oeste 0 -- -- 39
2019-06-04 10:00:00 21.1 15 Sudoeste 25 Sudoeste 0 -- -- 41
2019-06-04 09:00:00 19.5 16 Sudoeste 25 Oeste 0 -- -- 46
2019-06-04 08:00:00 16.4 18 Sudoeste 27 Sudoeste 0 -- -- 56
2019-06-04 07:00:00 13.5 23 Sudoeste 31 Sudoeste 0 -- -- 60
2019-06-04 06:00:00 13.9 28 Sudoeste 31 Sudoeste 0 -- -- 59
2019-06-04 05:00:00 14.2 25 Sudoeste 29 Sudoeste 0 -- -- 58
2019-06-04 04:00:00 14.5 24 Sudoeste 28 Sudoeste 0 -- -- 59
2019-06-04 03:00:00 14.3 22 Sudoeste 25 Sudoeste 0 -- -- 61
2019-06-04 02:00:00 15 19 Sudoeste 25 Sudoeste 0 -- -- 60
2019-06-04 01:00:00 16 15 Sudoeste 31 Sudoeste 0 -- -- 58
2019-06-04 00:00:00 17.7 23 Sudoeste 30 Sudoeste 0 -- -- 53
2019-06-03 23:00:00 18.1 19 Sudoeste 27 Sur 0 -- -- 53
2019-06-03 22:00:00 19 17 Sudoeste 25 Sur 0 -- -- 51
2019-06-03 21:00:00 21.2 11 Sudoeste 17 Sudoeste 0 -- -- 46
2019-06-03 20:00:00 25.2 8 Oeste 24 Oeste 0 -- -- 33
2019-06-03 19:00:00 25.4 14 Noroeste 29 Noroeste 0 -- -- 30
2019-06-03 18:00:00 27.1 18 Noroeste 33 Noroeste 0 -- -- 29
2019-06-03 17:00:00 26.5 11 Norte 33 Noroeste 0 -- -- 31
2019-06-03 16:00:00 24.8 17 Sur 23 Sudoeste 0 -- -- 40
2019-06-03 15:00:00 21.4 21 Sudoeste 66 Sudoeste 0 -- -- 44
2019-06-03 14:00:00 25.8 11 Oeste 26 Sudoeste 0 -- -- 37
2019-06-03 13:00:00 26.5 14 Sudoeste 27 Sudoeste 0 -- -- 36
2019-06-03 12:00:00 24.7 14 Sudoeste 27 Oeste 0 -- -- 40
2019-06-03 11:00:00 23 17 Sudoeste 26 Oeste 0 -- -- 42
2019-06-03 10:00:00 17.9 2 Norte 32 Sudoeste 0 -- -- 54
2019-06-03 09:00:00 18.4 25 Sudoeste 34 Sudoeste 0 -- -- 48
2019-06-03 08:00:00 17.3 26 Sudoeste 33 Sudoeste 0 -- -- 47
2019-06-03 07:00:00 15.1 22 Sudoeste 25 Sudoeste 0 -- -- 51
2019-06-03 06:00:00 15.8 19 Sudoeste 32 Sudoeste 0 -- -- 48
2019-06-03 05:00:00 14.7 25 Sudoeste 32 Sudoeste 0 -- -- 53
2019-06-03 04:00:00 15.2 27 Sudoeste 35 Sudoeste 0 -- -- 52
2019-06-03 03:00:00 16.5 29 Sudoeste 37 Sudoeste 0 -- -- 48
2019-06-03 02:00:00 16.8 25 Sudoeste 42 Sur 0 -- -- 46
2019-06-03 01:00:00 18.6 32 Sudoeste 45 Sudoeste 0 -- -- 43
2019-06-03 00:00:00 18.9 28 Sudoeste 37 Sur 0 -- -- 44
2019-06-02 23:00:00 18.8 22 Sur 31 Sur 0 -- -- 44
2019-06-02 22:00:00 19.8 18 Sur 25 Sur 0 -- -- 46
2019-06-02 21:00:00 21.5 9 Sur 17 Sudeste 0 -- -- 40
2019-06-02 20:00:00 24.3 12 Este 22 Nordeste 0 -- -- 36
2019-06-02 19:00:00 26.1 10 Este 22 Nordeste 0 -- -- 33
2019-06-02 18:00:00 24.8 10 Este 23 Este 0 -- -- 37
2019-06-02 17:00:00 26.4 13 Nordeste 23 Norte 0 -- -- 34
2019-06-02 16:00:00 26.2 10 Nordeste 19 Norte 0 -- -- 31
2019-06-02 15:00:00 27.4 7 Norte 18 Norte 0 -- -- 32
2019-06-02 14:00:00 26.1 8 Norte 17 Norte 0 -- -- 35
2019-06-02 13:00:00 25.7 4 Nordeste 14 Noroeste 0 -- -- 39
2019-06-02 12:00:00 23.9 9 Norte 17 Norte 0 -- -- 37
2019-06-02 11:00:00 23.4 8 Norte 13 Norte 0 -- -- 39
2019-06-02 10:00:00 21.7 6 Norte 10 Norte 0 -- -- 46
2019-06-02 09:00:00 20 4 Noroeste 8 Sudoeste 0 -- -- 49
2019-06-02 08:00:00 17.4 10 Oeste 21 Sudoeste 0 -- -- 52
2019-06-02 07:00:00 13.8 13 Oeste 21 Sudoeste 0 -- -- 56
2019-06-02 06:00:00 13.1 18 Sudoeste 29 Sudoeste 0 -- -- 57
2019-06-02 05:00:00 13.2 10 Sudoeste 22 Sudoeste 0 -- -- 61
2019-06-02 04:00:00 13.9 9 Sur 29 Sudoeste 0 -- -- 59
2019-06-02 03:00:00 14.3 24 Sudoeste 30 Sudoeste 0 -- -- 58
2019-06-02 02:00:00 14.3 23 Sudoeste 30 Sudoeste 0 -- -- 59
2019-06-02 01:00:00 14.5 27 Sudoeste 30 Sudoeste 0 -- -- 60
2019-06-02 00:00:00 15.6 25 Sudoeste 31 Sudoeste 0 -- -- 58
2019-06-01 23:00:00 17 13 Sur 24 Sur 0 -- -- 57
2019-06-01 22:00:00 17.2 6 Sur 11 Este 0 -- -- 52
2019-06-01 21:00:00 20.7 7 Este 21 Nordeste 0 -- -- 41
2019-06-01 20:00:00 22.8 12 Este 21 Este 0 -- -- 39
2019-06-01 19:00:00 23.9 12 Nordeste 24 Nordeste 0 -- -- 39
2019-06-01 18:00:00 24.7 10 Este 23 Sudeste 0 -- -- 40
2019-06-01 17:00:00 24.6 8 Nordeste 26 Nordeste 0 -- -- 39
2019-06-01 16:00:00 25.4 6 Sudeste 19 Este 0 -- -- 37
2019-06-01 15:00:00 25.3 6 Noroeste 13 Nordeste 0 -- -- 34
2019-06-01 14:00:00 24.6 8 Noroeste 16 Norte 0 -- -- 32
2019-06-01 13:00:00 23.8 7 Noroeste 13 Nordeste 0 -- -- 33
2019-06-01 12:00:00 22.6 5 Nordeste 18 Noroeste 0 -- -- 45
2019-06-01 11:00:00 22 7 Noroeste 14 Noroeste 0 -- -- 51
2019-06-01 10:00:00 19.8 4 Norte 10 Norte 0 -- -- 51
2019-06-01 09:00:00 18.5 0 Calma 4 Norte 0 -- -- 59
2019-06-01 08:00:00 15 3 Noroeste 12 Sudoeste 0 -- -- 70
2019-06-01 07:00:00 11.6 5 Oeste 13 Sudoeste 0 -- -- 74
2019-06-01 06:00:00 12.2 0 Calma 21 Sudoeste 0 -- -- 70
2019-06-01 05:00:00 11.9 20 Sudoeste 29 Sudoeste 0 -- -- 74
2019-06-01 04:00:00 12.1 21 Sudoeste 27 Sudoeste 0 -- -- 73
2019-06-01 03:00:00 12 22 Sudoeste 26 Sudoeste 0 -- -- 74
2019-06-01 02:00:00 13.3 4 Sur 12 Sudoeste 0 -- -- 66
2019-06-01 01:00:00 13.5 3 Sudeste 10 Sur 0 -- -- 57
2019-06-01 00:00:00 14.5 13 Sur 20 Sur 0 -- -- 49
2019-05-31 23:00:00 14.5 6 Sur 10 Sudeste 0 -- -- 52
2019-05-31 22:00:00 15.3 7 Sur 13 Sudeste 0 -- -- 58
2019-05-31 21:00:00 19.3 7 Este 19 Nordeste 0 -- -- 47
2019-05-31 20:00:00 21.3 8 Nordeste 19 Nordeste 0 -- -- 39
2019-05-31 19:00:00 22.4 14 Este 26 Nordeste 0 -- -- 36
2019-05-31 18:00:00 23 13 Este 23 Sudeste 0 -- -- 39
2019-05-31 17:00:00 22.9 9 Nordeste 21 Nordeste 0 -- -- 39
2019-05-31 16:00:00 23 9 Nordeste 21 Nordeste 0 -- -- 41
2019-05-31 15:00:00 23.4 8 Este 17 Nordeste 0 -- -- 39
2019-05-31 14:00:00 22.4 5 Norte 14 Noroeste 0 -- -- 32
2019-05-31 13:00:00 21.7 8 Norte 15 Norte 0 -- -- 37
2019-05-31 12:00:00 19.9 11 Norte 20 Norte 0 -- -- 39
2019-05-31 11:00:00 20.9 7 Noroeste 18 Norte 0 -- -- 45
2019-05-31 10:00:00 18.2 9 Norte 14 Norte 0 -- -- 50
2019-05-31 09:00:00 16.8 3 Nordeste 8 Norte 0 -- -- 54
2019-05-31 08:00:00 14.4 0 Calma 8 Sudoeste 0 -- -- 55
2019-05-31 07:00:00 10.6 6 Sudoeste 19 Sudoeste 0 -- -- 66
2019-05-31 06:00:00 12 5 Oeste 14 Noroeste 0 -- -- 58
2019-05-31 05:00:00 12.4 3 Noroeste 10 Oeste 0 -- -- 54
2019-05-31 04:00:00 12 3 Norte 12 Noroeste 0 -- -- 56
2019-05-31 03:00:00 12.6 8 Oeste 12 Noroeste 0 -- -- 56
2019-05-31 02:00:00 12.6 7 Oeste 13 Noroeste 0 -- -- 56
2019-05-31 01:00:00 14.2 9 Noroeste 18 Noroeste 0 -- -- 51
2019-05-31 00:00:00 13.7 13 Noroeste 17 Noroeste 0 -- -- 56
2019-05-30 23:00:00 14.1 10 Noroeste 14 Noroeste 0 -- -- 55
2019-05-30 22:00:00 14.1 5 Oeste 14 Norte 0 -- -- 54
2019-05-30 21:00:00 16.8 10 Norte 18 Norte 0 -- -- 45
2019-05-30 20:00:00 18.6 11 Norte 22 Norte 0 -- -- 37
2019-05-30 19:00:00 19.9 14 Norte 24 Norte 0 -- -- 38
2019-05-30 18:00:00 19.8 16 Norte 26 Norte 0 -- -- 38
2019-05-30 17:00:00 20.2 15 Norte 28 Norte 0 -- -- 37
2019-05-30 16:00:00 20 12 Norte 26 Norte 0 -- -- 36
2019-05-30 15:00:00 19.5 13 Norte 21 Noroeste 0 -- -- 40
2019-05-30 14:00:00 20.1 9 Norte 18 Norte 0 -- -- 50
2019-05-30 13:00:00 18.2 6 Noroeste 16 Noroeste 0 -- -- 50
2019-05-30 12:00:00 16.9 6 Norte 14 Noroeste 0 -- -- 55
2019-05-30 11:00:00 15.3 8 Noroeste 18 Norte 0 -- -- 57
2019-05-30 10:00:00 13.6 9 Noroeste 19 Noroeste 0 -- -- 60
2019-05-30 09:00:00 11.8 7 Norte 12 Norte 0 -- -- 64
2019-05-30 08:00:00 10 2 Norte 8 Noroeste 0 -- -- 73
2019-05-30 07:00:00 7.6 10 Noroeste 18 Noroeste 0 -- -- 77
2019-05-30 06:00:00 7.5 14 Noroeste 22 Noroeste 0 -- -- 76
2019-05-30 05:00:00 7 14 Noroeste 22 Oeste 0 -- -- 79
2019-05-30 04:00:00 7 18 Noroeste 26 Noroeste 0 -- -- 79
2019-05-30 03:00:00 7.2 18 Noroeste 28 Noroeste 0 -- -- 82
2019-05-30 02:00:00 7.8 19 Noroeste 28 Noroeste 0 -- -- 80
2019-05-30 01:00:00 7.5 10 Oeste 32 Norte 0 -- -- 82
2019-05-30 00:00:00 8.6 20 Noroeste 31 Noroeste 0 -- -- 77
2019-05-29 23:00:00 9.2 21 Noroeste 32 Noroeste 0 -- -- 76
2019-05-29 22:00:00 9.6 18 Noroeste 42 Noroeste 0 -- -- 73
2019-05-29 21:00:00 11 31 Noroeste 42 Noroeste 0 -- -- 68
2019-05-29 20:00:00 12.4 28 Noroeste 50 Noroeste 0 -- -- 65
2019-05-29 19:00:00 13.5 31 Noroeste 47 Noroeste 0 -- -- 60
2019-05-29 18:00:00 13.6 32 Noroeste 47 Norte 0 -- -- 58
2019-05-29 17:00:00 14 29 Noroeste 54 Noroeste 0 -- -- 54
2019-05-29 16:00:00 13.2 33 Noroeste 50 Noroeste 0 -- -- 55
2019-05-29 15:00:00 12.8 36 Noroeste 48 Norte 0 -- -- 58
2019-05-29 14:00:00 12.6 29 Noroeste 45 Noroeste 0 -- -- 59
2019-05-29 13:00:00 11 24 Norte 49 Noroeste 0 -- -- 65
2019-05-29 12:00:00 10.4 30 Norte 56 Noroeste 0 -- -- 69
2019-05-29 11:00:00 9.7 32 Norte 52 Noroeste 0 -- -- 67
2019-05-29 10:00:00 8.5 39 Noroeste 50 Noroeste 0 -- -- 78
2019-05-29 09:00:00 7.1 24 Noroeste 39 Noroeste 0 -- -- 79
2019-05-29 08:00:00 5.9 32 Noroeste 44 Noroeste 0 -- -- 79
2019-05-29 07:00:00 4.5 31 Noroeste 51 Noroeste 0 -- -- 79
2019-05-29 06:00:00 4.1 17 Noroeste 35 Noroeste 0 -- -- 87
2019-05-29 05:00:00 3.8 18 Noroeste 26 Noroeste 0 -- -- 88
2019-05-29 04:00:00 4.3 14 Noroeste 25 Noroeste 0 -- -- 86
2019-05-29 03:00:00 4.6 19 Noroeste 37 Noroeste 0 -- -- 83
2019-05-29 02:00:00 5 27 Noroeste 56 Noroeste 0 -- -- 75
2019-05-29 01:00:00 5.3 35 Noroeste 46 Noroeste 0 -- -- 81
2019-05-29 00:00:00 5.6 26 Noroeste 45 Noroeste 0 -- -- 82
2019-05-28 23:00:00 6 30 Noroeste 47 Noroeste 0 -- -- 81
2019-05-28 22:00:00 6.5 30 Noroeste 55 Noroeste 0 -- -- 79
2019-05-28 21:00:00 7.8 34 Noroeste 54 Noroeste 0 -- -- 75
2019-05-28 20:00:00 9.3 32 Noroeste 51 Norte 0 -- -- 70
2019-05-28 19:00:00 10.7 37 Noroeste 55 Noroeste 0 -- -- 66
2019-05-28 18:00:00 11.6 37 Noroeste 51 Noroeste 0 -- -- 62
2019-05-28 17:00:00 12.5 21 Norte 41 Norte 0 -- -- 63
2019-05-28 16:00:00 11.8 27 Norte 40 Norte 0 -- -- 65
2019-05-28 15:00:00 11.7 23 Noroeste 39 Noroeste 0 -- -- 64
2019-05-28 14:00:00 12.4 23 Noroeste 45 Noroeste 0 -- -- 58
2019-05-28 13:00:00 11.6 25 Noroeste 38 Noroeste 0 -- -- 58
2019-05-28 12:00:00 10.5 23 Norte 35 Noroeste 0 -- -- 66
2019-05-28 11:00:00 9.9 21 Noroeste 32 Noroeste 0 -- -- 71
2019-05-28 10:00:00 8.1 23 Noroeste 35 Noroeste 0 -- -- 73
2019-05-28 09:00:00 6.5 27 Noroeste 42 Noroeste 0 -- -- 77
2019-05-28 08:00:00 5.2 27 Noroeste 39 Noroeste 0 -- -- 83
2019-05-28 07:00:00 4.1 18 Noroeste 36 Noroeste 0 -- -- 95
2019-05-28 06:00:00 4.2 26 Noroeste 42 Noroeste 0 -- -- 94
2019-05-28 05:00:00 4.7 29 Noroeste 41 Noroeste 0 -- -- 93
2019-05-28 04:00:00 5 11 Noroeste 18 Noroeste 0 -- -- 91
2019-05-28 03:00:00 5 5 Noroeste 24 Noroeste 0 -- -- 91
2019-05-28 02:00:00 6.5 12 Noroeste 30 Noroeste 0 -- -- 93
2019-05-28 01:00:00 7.7 12 Noroeste 43 Noroeste 0 -- -- 92
2019-05-28 00:00:00 8.2 33 Noroeste 50 Norte 0 -- -- 87
2019-05-27 23:00:00 9.7 25 Noroeste 46 Norte 0 -- -- 90
2019-05-27 22:00:00 10.8 22 Norte 39 Noroeste 0 -- -- 85
2019-05-27 21:00:00 11.9 22 Norte 37 Norte 0 -- -- 79
2019-05-27 20:00:00 12.8 30 Norte 54 Norte 0 -- -- 74
2019-05-27 19:00:00 14.7 26 Norte 44 Norte 0 -- -- 70
2019-05-27 18:00:00 15.5 30 Norte 42 Noroeste 0 -- -- 66
2019-05-27 17:00:00 17.4 26 Norte 39 Norte 0 -- -- 60
2019-05-27 16:00:00 17.2 24 Norte 39 Norte 0 -- -- 58
2019-05-27 15:00:00 16.7 22 Norte 36 Noroeste 0 -- -- 59
2019-05-27 14:00:00 17.2 29 Noroeste 40 Noroeste 0 -- -- 58
2019-05-27 13:00:00 16.3 21 Noroeste 35 Noroeste 0 -- -- 62
2019-05-27 12:00:00 15.2 19 Noroeste 31 Noroeste 0 -- -- 68
2019-05-27 11:00:00 14 16 Noroeste 33 Noroeste 0 -- -- 67
2019-05-27 10:00:00 11.5 19 Noroeste 30 Noroeste 0 -- -- 76
2019-05-27 09:00:00 10.7 16 Noroeste 24 Noroeste 0 -- -- 77
2019-05-27 08:00:00 9.1 13 Noroeste 25 Noroeste 0 -- -- 85
2019-05-27 07:00:00 7 12 Noroeste 28 Noroeste 0 -- -- 91
2019-05-27 06:00:00 6.7 15 Noroeste 33 Noroeste 0 -- -- 91
2019-05-27 05:00:00 5.7 6 Norte 27 Noroeste 0 -- -- 98
2019-05-27 04:00:00 6.3 3 Sur 12 Noroeste 0 -- -- 96
2019-05-27 03:00:00 6.4 3 Norte 12 Noroeste 0 -- -- 97
2019-05-27 02:00:00 6.1 0 Calma 24 Noroeste 0 -- -- 94
2019-05-27 01:00:00 7.7 16 Noroeste 25 Oeste 0 -- -- 90
2019-05-27 00:00:00 7.8 14 Noroeste 31 Noroeste 0 -- -- 87
2019-05-26 23:00:00 7.6 17 Noroeste 34 Noroeste 0 -- -- 92
2019-05-26 22:00:00 8.7 24 Noroeste 35 Noroeste 0 -- -- 86
2019-05-26 21:00:00 9.9 16 Noroeste 36 Noroeste 0 -- -- 83
2019-05-26 20:00:00 11.4 23 Noroeste 43 Noroeste 0 -- -- 74
2019-05-26 19:00:00 12.8 24 Norte 41 Noroeste 0 -- -- 71
2019-05-26 18:00:00 13.2 28 Norte 45 Norte 0 -- -- 68
2019-05-26 17:00:00 13.6 29 Noroeste 42 Noroeste 0 -- -- 67
2019-05-26 16:00:00 13.1 28 Norte 40 Noroeste 0 -- -- 69
2019-05-26 15:00:00 12.5 25 Noroeste 39 Noroeste 0 -- -- 70
2019-05-26 14:00:00 10.9 24 Noroeste 39 Noroeste 0 -- -- 76
2019-05-26 13:00:00 10.8 22 Noroeste 37 Norte 0 -- -- 73
2019-05-26 12:00:00 10.1 27 Noroeste 40 Norte 0 -- -- 76
2019-05-26 11:00:00 9.7 27 Noroeste 38 Noroeste 0 -- -- 79
2019-05-26 10:00:00 7.5 28 Noroeste 42 Noroeste 0 -- -- 83
2019-05-26 09:00:00 6.6 27 Noroeste 40 Noroeste 0 -- -- 87
2019-05-26 08:00:00 5.8 26 Noroeste 40 Noroeste 0 -- -- 90
2019-05-26 07:00:00 5 27 Noroeste 37 Noroeste 0 -- -- 92
2019-05-26 06:00:00 4.9 23 Noroeste 37 Noroeste 0 -- -- 91
2019-05-26 05:00:00 5.1 28 Noroeste 44 Noroeste 0 -- -- 91
2019-05-26 04:00:00 5.5 26 Noroeste 39 Noroeste 0 -- -- 91
2019-05-26 03:00:00 5.7 28 Noroeste 37 Noroeste 0 -- -- 93
2019-05-26 02:00:00 6.1 26 Noroeste 45 Noroeste 0 -- -- 92
2019-05-26 01:00:00 6 25 Noroeste 40 Noroeste 0 -- -- 92
2019-05-26 00:00:00 6.5 18 Noroeste 39 Noroeste 0 -- -- 93